Stella, MO (64867)

12:58 PM CDT on April 01, 2015 (GMT -0500)
Farm Road 2100 | | Change Station
CLOSE
Current Station
Personal Weather Station
Location: Wheaton, MO
Elevation: 1335 ft
Nearby Weather Stations
Active Advisory: Special Statement Active Notice: Public Information Statement

Elev 1335 ft 36.79 °N, 94.07 °W | Updated 3 seconds ago

Overcast
Overcast
61.8 °F
Feels Like 61.8 °F
N
4.0
Wind Variable Wind from East
Gusts 10.0 mph

Today
High -- | Low -- °F
--% Chance of Precip.
Yesterday
High -- | Low -- °F
Precip. -- in
7:03 AM 7:39 PM
Waxing Gibbous, 93% visible
Pressure 29.92 in
Visibility 7.0 miles
Clouds Mostly Cloudy 4500 ft
Overcast 11000 ft
Dew Point 59 °F
Humidity 91%
Rainfall 0.00 in
Snow Depth Not available.
UV 3 out of 12
Pollen 11.10 out of 12
Air Quality Not available.
Flu Activity Not available.
METAR KHFJ 011735Z AUTO 12009KT 7SM BKN045 OVC110 15/14 A2992 RMK AO2 LTG DSNT ALQS

More Conditions Fewer Conditions

Pressure 29.92 in
Visibility 7.0 miles
Clouds Mostly Cloudy 4500 ft
Overcast 11000 ft
Dew Point 59 °F
Humidity 91%
Rainfall 0.00 in
Snow Depth Not available.
UV 3 out of 12
Pollen 11.10 out of 12
Air Quality Not available.
Flu Activity Not available.
METAR KHFJ 011735Z AUTO 12009KT 7SM BKN045 OVC110 15/14 A2992 RMK AO2 LTG DSNT ALQS

More Conditions Fewer Conditions

10-Day Weather Forecast

Almanac

Astronomy

Apr. 01, 2015 Rise Set
Actual Time
Civil Twilight
Nautical Twilight
Astronomical Twilight
Moon
Length of Visible Light
Length of Day
Tomorrow will be .
, % of the Moon is Illuminated

Today's Extremes

State Highs State Lows

Community

WunderPhotos

Upload Photos

1,810,018 photos uploaded!

WunderBlogs® & News

Nearby

Air Quality

  Air Quality AQ Index Pollutant
Not available.

Snow Depth

Station Depth Elevation

Earthquake Activity

City Distance Mag. Time & Date
Minimum magnitude displayed is 2.5.

Coastal Water Temperatures

Place Temperature

Stations

Nearby Weather Stations

Station Location Temp. Windchill Dew Point Humidity Wind Precip. Elev Updated Type
                   
Special Statement
Statement as of 12:40 PM CDT on April 01, 2015

... Significant weather advisory for western Newton County until 115
PM CDT...

At 1238 PM CDT... National Weather Service Doppler radar was tracking
a strong thunderstorm near Seneca... or 14 miles west of Neosho...
moving northeast at 15 mph. Penny size hail is expected with this
storm.

Locations impacted include Neosho... Racine and Seneca.

People in western Newton County... including Seneca... should monitor
the weather situation closely. Listen for possible warnings and be
prepared to take appropriate action should severe weather threaten.

Lat... Lon 3677 9456 3677 9462 3693 9463 3704 9442
      3684 9429 3676 9451 3676 9456
time... Mot... loc 1740z 242deg 14kt 3683 9461


Boxell